Antioch, Illinois
Current Conditions -  °F | °C
As of 3:53 AM on Monday 22 Dec 2014 (Local Time) from KENW Reporting Station
Haze Haze  
Wind Chill: 25°   Ceiling: Unl
Heat Index: 31°   Visibility: 5mi
Dew Point: 27°   Wind: 6mph
Humidity: 85%   Direction: 140°SE
Pressure: 29.95"   Gusts: NA
Location:  42.48°N, 88.1°W
Report Text: KENW 220953Z AUTO 14005KT 5SM BR CLR M01/M03 A2995 RMK AO2 SLP151 T10061028
Loading
Personal Weather Stations






























Interactive Weather Map New forecast layout! Learn more

10-Day Weather Forecast

Advertisements
Track Severe Weather on mobile